sensor_id;sensor_type;location;lat;lon;timestamp;pressure;altitude;pressure_sealevel;temperature;humidity
23635;BME280;11994;51.038;16.974;2023-07-29T00:00:51;99475.03;;;19.32;77.34
23635;BME280;11994;51.038;16.974;2023-07-29T00:03:17;99474.15;;;19.32;77.56
23635;BME280;11994;51.038;16.974;2023-07-29T00:05:42;99474.85;;;19.34;77.62
23635;BME280;11994;51.038;16.974;2023-07-29T00:08:08;99477.77;;;19.38;77.65
23635;BME280;11994;51.038;16.974;2023-07-29T00:10:36;99472.41;;;19.39;77.47
23635;BME280;11994;51.038;16.974;2023-07-29T00:13:02;99470.23;;;19.34;77.36
23635;BME280;11994;51.038;16.974;2023-07-29T00:15:28;99472.90;;;19.32;77.47
23635;BME280;11994;51.038;16.974;2023-07-29T00:17:53;99471.34;;;19.29;77.48
23635;BME280;11994;51.038;16.974;2023-07-29T00:20:20;99476.38;;;19.28;77.70
23635;BME280;11994;51.038;16.974;2023-07-29T00:22:45;99476.76;;;19.25;77.67
23635;BME280;11994;51.038;16.974;2023-07-29T00:25:11;99475.78;;;19.22;77.76
23635;BME280;11994;51.038;16.974;2023-07-29T00:27:36;99476.70;;;19.16;77.86
23635;BME280;11994;51.038;16.974;2023-07-29T00:30:01;99480.52;;;19.09;77.90
23635;BME280;11994;51.038;16.974;2023-07-29T00:32:29;99474.45;;;19.07;78.05
23635;BME280;11994;51.038;16.974;2023-07-29T00:34:55;99480.71;;;19.12;78.39
23635;BME280;11994;51.038;16.974;2023-07-29T00:37:21;99474.84;;;19.12;78.18
23635;BME280;11994;51.038;16.974;2023-07-29T00:39:46;99474.05;;;19.11;78.41
23635;BME280;11994;51.038;16.974;2023-07-29T00:42:11;99472.30;;;19.08;78.20
23635;BME280;11994;51.038;16.974;2023-07-29T00:44:36;99473.04;;;19.05;78.36
23635;BME280;11994;51.038;16.974;2023-07-29T00:47:02;99472.22;;;19.04;78.22
23635;BME280;11994;51.038;16.974;2023-07-29T00:49:30;99475.86;;;18.98;78.24
23635;BME280;11994;51.038;16.974;2023-07-29T00:51:55;99474.15;;;18.91;78.41
23635;BME280;11994;51.038;16.974;2023-07-29T00:54:21;99473.77;;;18.90;78.51
23635;BME280;11994;51.038;16.974;2023-07-29T00:56:47;99472.64;;;18.88;78.78
23635;BME280;11994;51.038;16.974;2023-07-29T00:59:13;99471.81;;;18.87;78.97
23635;BME280;11994;51.038;16.974;2023-07-29T01:01:38;99468.55;;;18.83;78.84
23635;BME280;11994;51.038;16.974;2023-07-29T01:04:04;99468.96;;;18.85;79.13
23635;BME280;11994;51.038;16.974;2023-07-29T01:09:57;99468.58;;;18.88;79.03
23635;BME280;11994;51.038;16.974;2023-07-29T01:12:54;99467.20;;;18.79;78.89
23635;BME280;11994;51.038;16.974;2023-07-29T01:28:34;99474.25;;;19.30;78.32
23635;BME280;11994;51.038;16.974;2023-07-29T01:31:23;99474.69;;;19.29;78.08
23635;BME280;11994;51.038;16.974;2023-07-29T01:34:17;99472.59;;;19.11;78.08
23635;BME280;11994;51.038;16.974;2023-07-29T01:36:46;99474.86;;;18.94;78.29
23635;BME280;11994;51.038;16.974;2023-07-29T01:39:14;99476.29;;;18.81;78.56
23635;BME280;11994;51.038;16.974;2023-07-29T01:41:43;99481.63;;;18.73;78.88
23635;BME280;11994;51.038;16.974;2023-07-29T01:44:09;99481.64;;;18.68;79.24
23635;BME280;11994;51.038;16.974;2023-07-29T01:46:37;99478.29;;;18.65;79.49
23635;BME280;11994;51.038;16.974;2023-07-29T01:49:03;99476.77;;;18.62;79.79
23635;BME280;11994;51.038;16.974;2023-07-29T01:51:28;99478.52;;;18.62;79.85
23635;BME280;11994;51.038;16.974;2023-07-29T01:53:53;99475.61;;;18.61;79.89
23635;BME280;11994;51.038;16.974;2023-07-29T01:56:21;99478.80;;;18.56;79.75
23635;BME280;11994;51.038;16.974;2023-07-29T01:58:46;99481.36;;;18.54;80.07
23635;BME280;11994;51.038;16.974;2023-07-29T02:01:12;99478.77;;;18.53;79.99
23635;BME280;11994;51.038;16.974;2023-07-29T02:03:37;99480.55;;;18.43;79.87
23635;BME280;11994;51.038;16.974;2023-07-29T02:06:03;99478.75;;;18.40;80.24
23635;BME280;11994;51.038;16.974;2023-07-29T02:08:28;99478.70;;;18.36;80.16
23635;BME280;11994;51.038;16.974;2023-07-29T02:10:53;99479.43;;;18.33;80.28
23635;BME280;11994;51.038;16.974;2023-07-29T02:13:19;99481.74;;;18.30;80.47
23635;BME280;11994;51.038;16.974;2023-07-29T02:15:44;99475.75;;;18.24;80.58
23635;BME280;11994;51.038;16.974;2023-07-29T02:18:10;99479.05;;;18.20;80.63
23635;BME280;11994;51.038;16.974;2023-07-29T02:20:35;99477.43;;;18.17;80.80
23635;BME280;11994;51.038;16.974;2023-07-29T02:23:00;99475.10;;;18.16;81.01
23635;BME280;11994;51.038;16.974;2023-07-29T02:25:26;99471.73;;;18.16;81.14
23635;BME280;11994;51.038;16.974;2023-07-29T02:27:51;99471.89;;;18.18;81.24
23635;BME280;11994;51.038;16.974;2023-07-29T02:30:16;99470.53;;;18.12;81.03
23635;BME280;11994;51.038;16.974;2023-07-29T02:32:42;99468.14;;;18.03;81.00
23635;BME280;11994;51.038;16.974;2023-07-29T02:35:07;99469.73;;;17.95;81.21
23635;BME280;11994;51.038;16.974;2023-07-29T02:37:33;99468.29;;;17.90;81.41
23635;BME280;11994;51.038;16.974;2023-07-29T02:39:58;99467.75;;;17.82;81.31
23635;BME280;11994;51.038;16.974;2023-07-29T02:42:24;99467.34;;;17.72;81.47
23635;BME280;11994;51.038;16.974;2023-07-29T02:44:49;99465.98;;;17.66;81.85
23635;BME280;11994;51.038;16.974;2023-07-29T02:47:14;99465.35;;;17.67;82.32
23635;BME280;11994;51.038;16.974;2023-07-29T02:49:40;99468.10;;;17.64;81.97
23635;BME280;11994;51.038;16.974;2023-07-29T02:52:05;99474.14;;;17.52;82.07
23635;BME280;11994;51.038;16.974;2023-07-29T02:54:31;99473.30;;;17.46;82.46
23635;BME280;11994;51.038;16.974;2023-07-29T02:56:56;99479.20;;;17.48;82.81
23635;BME280;11994;51.038;16.974;2023-07-29T02:59:21;99478.95;;;17.54;83.10
23635;BME280;11994;51.038;16.974;2023-07-29T03:01:47;99480.09;;;17.64;83.50
23635;BME280;11994;51.038;16.974;2023-07-29T03:04:12;99485.36;;;17.73;83.15
23635;BME280;11994;51.038;16.974;2023-07-29T03:06:38;99484.85;;;17.75;82.88
23635;BME280;11994;51.038;16.974;2023-07-29T03:09:03;99483.44;;;17.70;82.56
23635;BME280;11994;51.038;16.974;2023-07-29T03:11:30;99484.36;;;17.61;82.69
23635;BME280;11994;51.038;16.974;2023-07-29T03:13:56;99491.11;;;17.58;82.92
23635;BME280;11994;51.038;16.974;2023-07-29T03:16:22;99491.86;;;17.57;83.06
23635;BME280;11994;51.038;16.974;2023-07-29T03:18:48;99485.55;;;17.59;83.34
23635;BME280;11994;51.038;16.974;2023-07-29T03:21:14;99484.66;;;17.62;83.36
23635;BME280;11994;51.038;16.974;2023-07-29T03:23:40;99481.11;;;17.62;83.43
23635;BME280;11994;51.038;16.974;2023-07-29T03:26:06;99483.65;;;17.66;83.43
23635;BME280;11994;51.038;16.974;2023-07-29T03:28:37;99484.48;;;17.67;83.48
23635;BME280;11994;51.038;16.974;2023-07-29T03:31:03;99483.38;;;17.68;83.50
23635;BME280;11994;51.038;16.974;2023-07-29T03:33:28;99491.43;;;17.69;83.65
23635;BME280;11994;51.038;16.974;2023-07-29T03:35:54;99490.20;;;17.69;83.64
23635;BME280;11994;51.038;16.974;2023-07-29T03:38:19;99491.80;;;17.69;83.65
23635;BME280;11994;51.038;16.974;2023-07-29T03:40:45;99488.14;;;17.66;83.76
23635;BME280;11994;51.038;16.974;2023-07-29T03:43:10;99486.80;;;17.64;83.86
23635;BME280;11994;51.038;16.974;2023-07-29T03:45:36;99483.10;;;17.64;83.80
23635;BME280;11994;51.038;16.974;2023-07-29T03:48:03;99488.95;;;17.64;83.79
